createdAt,value
2022-11-07T00:00:26.050Z,4.07
2022-11-07T00:02:52.848Z,4.07
2022-11-07T00:05:19.443Z,4.07
2022-11-07T00:07:46.050Z,4.15
2022-11-07T00:10:12.631Z,4.22
2022-11-07T00:12:42.611Z,4.21
2022-11-07T00:15:09.630Z,4.22
2022-11-07T00:17:36.205Z,4.24
2022-11-07T00:20:02.888Z,4.38
2022-11-07T00:22:30.493Z,4.46
2022-11-07T00:24:57.119Z,4.25
2022-11-07T00:27:23.744Z,4.20
2022-11-07T00:29:50.394Z,4.25
2022-11-07T00:32:17.001Z,4.23
2022-11-07T00:34:43.568Z,4.28
2022-11-07T00:37:10.120Z,4.22
2022-11-07T00:39:36.780Z,4.25
2022-11-07T00:42:03.616Z,4.32
2022-11-07T00:44:30.189Z,4.37
2022-11-07T00:46:56.734Z,4.31
2022-11-07T00:49:23.303Z,4.30
2022-11-07T00:51:49.873Z,4.28
2022-11-07T00:54:17.525Z,4.29
2022-11-07T00:56:44.128Z,4.28
2022-11-07T00:59:10.784Z,4.45
2022-11-07T01:01:37.668Z,4.40
2022-11-07T01:04:20.107Z,4.31
2022-11-07T01:06:47.064Z,4.32
2022-11-07T01:09:17.195Z,4.34
2022-11-07T01:11:44.844Z,4.37
2022-11-07T01:14:13.935Z,4.42
2022-11-07T01:16:41.980Z,4.42
2022-11-07T01:19:09.439Z,4.42
2022-11-07T01:21:38.970Z,4.40
2022-11-07T01:24:07.982Z,4.38
2022-11-07T01:26:34.714Z,4.49
2022-11-07T01:29:01.433Z,4.47
2022-11-07T01:31:28.228Z,4.46
2022-11-07T01:33:55.000Z,4.48
2022-11-07T01:36:21.576Z,4.51
2022-11-07T01:38:49.235Z,4.55
2022-11-07T01:41:23.024Z,4.54
2022-11-07T01:44:10.219Z,4.54
2022-11-07T01:46:38.111Z,4.59
2022-11-07T01:49:09.602Z,4.63
2022-11-07T01:51:42.905Z,4.64
2022-11-07T01:54:11.392Z,4.64
2022-11-07T01:56:41.355Z,4.66
2022-11-07T01:59:11.033Z,4.63
2022-11-07T02:01:37.812Z,4.62
2022-11-07T02:04:05.669Z,4.66
2022-11-07T02:06:46.519Z,4.65
2022-11-07T02:09:14.066Z,4.68
2022-11-07T02:11:40.912Z,4.71
2022-11-07T02:14:07.709Z,4.64
2022-11-07T02:16:36.291Z,4.71
2022-11-07T02:19:08.508Z,4.71
2022-11-07T02:21:53.849Z,4.74
2022-11-07T02:24:33.244Z,4.76
2022-11-07T02:27:04.833Z,4.80
2022-11-07T02:29:33.522Z,4.79
2022-11-07T02:32:02.365Z,4.81
2022-11-07T02:34:29.007Z,4.82
2022-11-07T02:36:56.569Z,4.83
2022-11-07T02:39:23.411Z,4.89
2022-11-07T02:41:51.209Z,4.83
2022-11-07T02:44:19.131Z,4.83
2022-11-07T02:46:46.822Z,4.82
2022-11-07T02:49:13.417Z,4.84
2022-11-07T02:51:39.992Z,4.88
2022-11-07T02:54:06.631Z,4.89
2022-11-07T02:56:33.202Z,4.88
2022-11-07T02:58:59.834Z,4.89
2022-11-07T03:01:27.587Z,4.93
2022-11-07T03:03:54.464Z,4.91
2022-11-07T03:06:24.692Z,4.89
2022-11-07T03:08:51.939Z,4.92
2022-11-07T03:11:19.771Z,4.92
2022-11-07T03:13:48.416Z,4.88
2022-11-07T03:16:17.027Z,4.88
2022-11-07T03:18:44.152Z,4.89
2022-11-07T03:21:11.062Z,4.92
2022-11-07T03:23:37.905Z,4.96
2022-11-07T03:26:04.745Z,4.97
2022-11-07T03:28:31.970Z,5.01
2022-11-07T03:31:01.510Z,5.03
2022-11-07T03:33:29.356Z,5.05
2022-11-07T03:35:56.012Z,5.08
2022-11-07T03:38:22.914Z,5.09
2022-11-07T03:40:49.683Z,5.12
2022-11-07T03:43:16.649Z,5.15
2022-11-07T03:45:43.537Z,5.14
2022-11-07T03:48:10.087Z,5.20
2022-11-07T03:50:36.800Z,5.19
2022-11-07T03:53:03.413Z,5.20
2022-11-07T03:55:30.133Z,5.18
2022-11-07T03:58:00.525Z,5.21
2022-11-07T04:00:27.369Z,5.19
2022-11-07T04:02:54.170Z,5.25
2022-11-07T04:05:20.846Z,5.25
2022-11-07T04:07:47.413Z,5.23
2022-11-07T04:10:14.013Z,5.25
2022-11-07T04:12:55.846Z,5.25
2022-11-07T04:15:40.989Z,5.28
2022-11-07T04:18:07.609Z,5.30
2022-11-07T04:20:34.210Z,5.28
2022-11-07T04:23:00.811Z,5.32
2022-11-07T04:25:42.641Z,5.33
2022-11-07T04:28:09.250Z,5.51
2022-11-07T04:30:35.851Z,5.46
2022-11-07T04:33:03.247Z,5.41
2022-11-07T04:35:32.439Z,5.39
2022-11-07T04:37:59.818Z,5.35
2022-11-07T04:40:27.766Z,5.32
2022-11-07T04:42:55.263Z,5.53
2022-11-07T04:45:22.292Z,5.37
2022-11-07T04:47:49.309Z,5.34
2022-11-07T04:50:18.681Z,5.34
2022-11-07T04:52:46.805Z,5.43
2022-11-07T04:55:22.233Z,5.46
2022-11-07T04:57:51.429Z,5.46
2022-11-07T05:00:20.186Z,5.39
2022-11-07T05:02:47.920Z,5.30
2022-11-07T05:05:14.666Z,5.27
2022-11-07T05:07:41.932Z,5.25
2022-11-07T05:10:16.259Z,5.23
2022-11-07T05:12:42.835Z,5.28
2022-11-07T05:15:09.741Z,5.39
2022-11-07T05:17:36.316Z,5.38
2022-11-07T05:20:03.054Z,5.37
2022-11-07T05:22:45.044Z,5.35
2022-11-07T05:25:11.633Z,5.34
2022-11-07T05:27:38.439Z,5.37
2022-11-07T05:30:06.309Z,5.40
2022-11-07T05:32:38.141Z,5.37
2022-11-07T05:35:05.695Z,5.50
2022-11-07T05:37:32.338Z,5.74
2022-11-07T05:39:58.929Z,5.54
2022-11-07T05:42:25.521Z,5.51
2022-11-07T05:44:52.110Z,5.49
2022-11-07T05:47:18.683Z,5.45
2022-11-07T05:49:45.278Z,5.42
2022-11-07T05:52:11.856Z,5.44
2022-11-07T05:54:38.712Z,5.55
2022-11-07T05:57:05.255Z,5.47
2022-11-07T05:59:31.830Z,5.48
2022-11-07T06:01:58.476Z,5.49
2022-11-07T06:04:25.133Z,5.55
2022-11-07T06:06:51.742Z,5.55
2022-11-07T06:09:18.320Z,5.54
2022-11-07T06:11:45.355Z,5.52
2022-11-07T06:14:11.918Z,5.53
2022-11-07T06:16:38.503Z,5.53
2022-11-07T06:19:05.334Z,5.50
2022-11-07T06:21:32.272Z,5.50
2022-11-07T06:23:59.355Z,5.54
2022-11-07T06:26:26.685Z,5.56
2022-11-07T06:28:56.819Z,5.60
2022-11-07T06:31:23.544Z,5.71
2022-11-07T06:33:51.343Z,5.69
2022-11-07T06:36:18.230Z,5.70
2022-11-07T06:38:44.832Z,5.70
2022-11-07T06:41:14.050Z,5.70
2022-11-07T06:43:40.838Z,5.69
2022-11-07T06:46:10.478Z,5.74
2022-11-07T06:48:37.080Z,5.77
2022-11-07T06:51:05.961Z,5.79
2022-11-07T06:53:33.218Z,5.79
2022-11-07T06:56:00.783Z,5.80
2022-11-07T06:58:27.691Z,5.81
2022-11-07T07:00:58.534Z,5.87
2022-11-07T07:03:25.250Z,5.88
2022-11-07T07:05:51.847Z,5.90
2022-11-07T07:08:18.528Z,5.92
2022-11-07T07:10:46.043Z,5.93
2022-11-07T07:13:14.585Z,5.94
2022-11-07T07:15:50.758Z,6.00
2022-11-07T07:18:18.996Z,6.04
2022-11-07T07:20:46.713Z,6.02
2022-11-07T07:23:13.293Z,6.04
2022-11-07T07:25:39.875Z,6.23
2022-11-07T07:28:06.433Z,6.17
2022-11-07T07:30:33.073Z,6.15
2022-11-07T07:32:59.719Z,6.14
2022-11-07T07:35:26.511Z,6.16
2022-11-07T07:37:53.302Z,6.21
2022-11-07T07:40:20.836Z,6.24
2022-11-07T07:42:47.854Z,6.24
2022-11-07T07:45:16.002Z,6.28
2022-11-07T07:47:42.848Z,6.33
2022-11-07T07:50:12.019Z,6.46
2022-11-07T07:52:38.830Z,6.65
2022-11-07T07:55:07.981Z,6.82
2022-11-07T07:57:39.616Z,7.10
2022-11-07T08:00:11.709Z,7.53
2022-11-07T08:02:39.025Z,7.72
2022-11-07T08:05:06.217Z,8.10
2022-11-07T08:07:32.800Z,8.25
2022-11-07T08:10:05.418Z,8.26
2022-11-07T08:12:46.480Z,8.57
2022-11-07T08:15:14.200Z,8.60
2022-11-07T08:17:44.909Z,8.94
2022-11-07T08:20:14.678Z,8.78
2022-11-07T08:22:41.614Z,8.93
2022-11-07T08:25:10.374Z,9.23
2022-11-07T08:27:37.656Z,9.29
2022-11-07T08:30:07.124Z,9.30
2022-11-07T08:32:34.403Z,9.45
2022-11-07T08:35:01.108Z,9.60
2022-11-07T08:37:27.660Z,9.59
2022-11-07T08:39:54.235Z,9.53
2022-11-07T08:42:20.859Z,9.53
2022-11-07T08:44:47.470Z,9.48
2022-11-07T08:47:14.077Z,9.66
2022-11-07T08:49:40.662Z,9.97
2022-11-07T08:52:07.263Z,10.23
2022-11-07T08:54:33.913Z,10.30
2022-11-07T08:57:01.276Z,10.48
2022-11-07T08:59:29.298Z,10.62
2022-11-07T09:02:39.077Z,10.45
2022-11-07T09:04:42.949Z,10.78
2022-11-07T09:07:09.650Z,11.13
2022-11-07T09:09:36.307Z,10.98
2022-11-07T09:12:02.948Z,10.87
2022-11-07T09:14:29.567Z,10.89
2022-11-07T09:16:56.129Z,11.09
2022-11-07T09:19:22.728Z,11.04
2022-11-07T09:21:49.342Z,11.04
2022-11-07T09:24:15.926Z,11.32
2022-11-07T09:26:42.638Z,11.61
2022-11-07T09:29:09.255Z,12.20
2022-11-07T09:31:36.283Z,12.23
2022-11-07T09:34:02.886Z,12.69
2022-11-07T09:36:29.529Z,13.00
2022-11-07T09:38:57.240Z,13.29
2022-11-07T09:41:39.212Z,13.25
2022-11-07T09:44:32.352Z,13.33
2022-11-07T09:47:14.667Z,14.00
2022-11-07T09:49:46.452Z,14.40
2022-11-07T09:52:16.968Z,14.44
2022-11-07T09:54:48.900Z,14.65
2022-11-07T09:57:17.589Z,14.70
2022-11-07T09:59:53.153Z,14.75
2022-11-07T10:02:24.005Z,14.57
2022-11-07T10:04:56.843Z,14.94
2022-11-07T10:07:53.872Z,15.22
2022-11-07T10:10:46.643Z,15.05
2022-11-07T10:13:28.471Z,15.33
2022-11-07T10:16:06.379Z,15.60
2022-11-07T10:18:52.883Z,14.94
2022-11-07T10:21:41.526Z,14.81
2022-11-07T10:24:27.078Z,15.39
2022-11-07T10:26:53.950Z,15.51
2022-11-07T10:29:24.339Z,15.77
2022-11-07T10:32:13.379Z,15.76
2022-11-07T10:34:50.242Z,15.68
2022-11-07T10:37:21.127Z,15.32
2022-11-07T10:39:47.757Z,15.43
2022-11-07T10:42:19.882Z,15.25
2022-11-07T10:44:47.817Z,15.24
2022-11-07T10:47:21.581Z,15.10
2022-11-07T10:50:16.892Z,15.14
2022-11-07T10:52:52.715Z,14.98
2022-11-07T10:55:19.447Z,14.77
2022-11-07T10:57:50.630Z,14.30
2022-11-07T11:00:23.413Z,14.05
2022-11-07T11:02:51.805Z,14.12
2022-11-07T11:05:40.792Z,14.08
2022-11-07T11:08:20.121Z,13.98
2022-11-07T11:10:47.905Z,13.89
2022-11-07T11:13:32.317Z,13.92
2022-11-07T11:16:07.987Z,13.79
2022-11-07T11:18:34.566Z,13.87
2022-11-07T11:21:03.179Z,13.87
2022-11-07T11:23:35.376Z,13.93
2022-11-07T11:26:07.428Z,13.97
2022-11-07T11:28:38.213Z,13.87
2022-11-07T11:31:14.283Z,13.79
2022-11-07T11:33:47.328Z,13.65
2022-11-07T11:36:19.300Z,13.75
2022-11-07T11:38:54.827Z,13.92
2022-11-07T11:41:31.657Z,13.98
2022-11-07T11:44:04.862Z,13.87
2022-11-07T11:46:43.044Z,13.93
2022-11-07T11:49:17.850Z,13.96
2022-11-07T11:51:53.498Z,13.86
2022-11-07T11:54:20.219Z,13.79
2022-11-07T11:56:59.624Z,13.82
2022-11-07T11:59:51.151Z,13.71
2022-11-07T12:02:45.405Z,13.76
2022-11-07T12:05:47.414Z,13.62
2022-11-07T12:08:30.589Z,13.85
2022-11-07T12:11:13.390Z,13.82
2022-11-07T12:14:00.954Z,13.81
2022-11-07T12:16:41.110Z,13.83
2022-11-07T12:19:36.959Z,13.86
2022-11-07T12:22:16.824Z,14.06
2022-11-07T12:24:44.365Z,13.99
2022-11-07T12:27:34.312Z,13.97
2022-11-07T12:30:22.166Z,14.04
2022-11-07T12:33:23.969Z,13.92
2022-11-07T12:35:54.670Z,14.16
2022-11-07T12:38:37.729Z,14.30
2022-11-07T12:41:28.476Z,14.38
2022-11-07T12:43:55.022Z,14.30
2022-11-07T12:46:46.020Z,14.13
2022-11-07T12:49:27.882Z,14.15
2022-11-07T12:52:09.683Z,14.13
2022-11-07T12:54:56.621Z,14.05
2022-11-07T12:57:27.241Z,14.26
2022-11-07T13:00:01.477Z,14.28
2022-11-07T13:02:36.923Z,14.44
2022-11-07T13:05:17.202Z,14.42
2022-11-07T13:07:53.521Z,14.54
2022-11-07T13:10:28.601Z,14.83
2022-11-07T13:13:16.173Z,14.90
2022-11-07T13:16:13.655Z,14.79
2022-11-07T13:18:30.040Z,14.70
2022-11-07T13:21:04.022Z,14.61
2022-11-07T13:23:30.965Z,14.47
2022-11-07T13:26:00.016Z,14.38
2022-11-07T13:28:43.021Z,14.29
2022-11-07T13:31:31.897Z,14.24
2022-11-07T13:34:24.818Z,14.28
2022-11-07T13:36:57.092Z,14.24
2022-11-07T13:39:24.785Z,14.28
2022-11-07T13:41:52.948Z,14.37
2022-11-07T13:44:26.065Z,14.53
2022-11-07T13:46:56.637Z,14.55
2022-11-07T13:49:43.989Z,14.65
2022-11-07T13:52:20.622Z,14.80
2022-11-07T13:54:51.262Z,14.96
2022-11-07T13:57:27.673Z,14.99
2022-11-07T14:00:14.536Z,14.93
2022-11-07T14:02:54.685Z,14.99
2022-11-07T14:05:24.117Z,15.40
2022-11-07T14:07:55.657Z,15.52
2022-11-07T14:10:29.648Z,15.67
2022-11-07T14:13:07.339Z,15.88
2022-11-07T14:15:36.659Z,15.91
2022-11-07T14:18:04.463Z,16.09
2022-11-07T14:20:31.135Z,16.12
2022-11-07T14:23:00.739Z,16.24
2022-11-07T14:25:32.037Z,16.58
2022-11-07T14:27:59.636Z,16.64
2022-11-07T14:30:28.530Z,16.50
2022-11-07T14:33:00.029Z,16.17
2022-11-07T14:35:33.667Z,15.85
2022-11-07T14:38:11.143Z,15.48
2022-11-07T14:40:38.328Z,15.27
2022-11-07T14:43:05.152Z,15.11
2022-11-07T14:46:10.287Z,14.98
2022-11-07T14:48:28.318Z,14.95
2022-11-07T14:50:55.891Z,15.22
2022-11-07T14:53:28.150Z,15.53
2022-11-07T14:55:58.927Z,15.81
2022-11-07T14:58:28.438Z,16.04
2022-11-07T15:00:59.778Z,15.73
2022-11-07T15:03:32.822Z,15.62
2022-11-07T15:05:59.603Z,15.19
2022-11-07T15:08:28.218Z,14.84
2022-11-07T15:11:25.524Z,14.54
2022-11-07T15:13:53.123Z,14.30
2022-11-07T15:16:22.702Z,14.20
2022-11-07T15:18:58.700Z,14.05
2022-11-07T15:21:29.554Z,13.85
2022-11-07T15:23:56.900Z,13.67
2022-11-07T15:26:30.307Z,13.60
2022-11-07T15:29:14.281Z,13.50
2022-11-07T15:31:48.479Z,13.37
2022-11-07T15:34:33.682Z,13.24
2022-11-07T15:37:17.461Z,13.09
2022-11-07T15:39:44.183Z,13.07
2022-11-07T15:42:10.800Z,13.00
2022-11-07T15:44:38.429Z,12.88
2022-11-07T15:47:06.052Z,12.76
2022-11-07T15:49:34.108Z,12.65
2022-11-07T15:52:01.632Z,12.45
2022-11-07T15:54:36.057Z,12.26
2022-11-07T15:57:05.828Z,12.17
2022-11-07T15:59:35.665Z,12.17
2022-11-07T16:02:03.084Z,12.05
2022-11-07T16:04:39.639Z,12.00
2022-11-07T16:07:15.001Z,11.99
2022-11-07T16:09:42.633Z,11.95
2022-11-07T16:12:13.034Z,11.87
2022-11-07T16:14:44.427Z,11.75
2022-11-07T16:17:15.099Z,11.62
2022-11-07T16:19:44.955Z,11.50
2022-11-07T16:22:13.712Z,11.39
2022-11-07T16:24:40.274Z,11.28
2022-11-07T16:27:07.281Z,11.25
2022-11-07T16:29:33.920Z,11.17
2022-11-07T16:32:00.641Z,11.07
2022-11-07T16:34:27.190Z,10.84
2022-11-07T16:36:53.829Z,10.74
2022-11-07T16:39:22.621Z,10.67
2022-11-07T16:41:50.388Z,10.61
2022-11-07T16:44:21.583Z,10.60
2022-11-07T16:46:51.428Z,10.61
2022-11-07T16:49:30.776Z,10.55
2022-11-07T16:51:58.171Z,10.49
2022-11-07T16:54:25.081Z,10.33
2022-11-07T16:56:52.926Z,10.39
2022-11-07T16:59:22.362Z,10.42
2022-11-07T17:01:51.119Z,10.38
2022-11-07T17:04:17.851Z,10.30
2022-11-07T17:06:47.576Z,10.21
2022-11-07T17:09:16.857Z,9.97
2022-11-07T17:11:44.671Z,9.82
2022-11-07T17:14:11.782Z,9.83
2022-11-07T17:16:42.144Z,9.82
2022-11-07T17:19:12.818Z,9.79
2022-11-07T17:21:46.163Z,9.73
2022-11-07T17:24:13.943Z,9.67
2022-11-07T17:26:40.706Z,9.58
2022-11-07T17:29:10.850Z,9.55
2022-11-07T17:31:37.523Z,9.46
2022-11-07T17:34:04.232Z,9.43
2022-11-07T17:36:37.139Z,9.41
2022-11-07T17:39:10.953Z,9.39
2022-11-07T17:41:39.390Z,9.43
2022-11-07T17:44:06.315Z,9.34
2022-11-07T17:46:34.511Z,9.16
2022-11-07T17:49:04.039Z,9.02
2022-11-07T17:51:30.993Z,9.09
2022-11-07T17:53:58.251Z,9.12
2022-11-07T17:56:27.174Z,9.08
2022-11-07T17:58:57.299Z,8.97
2022-11-07T18:01:26.500Z,8.92
2022-11-07T18:03:54.701Z,8.87
2022-11-07T18:06:23.623Z,8.85
2022-11-07T18:08:52.873Z,8.82
2022-11-07T18:11:22.573Z,8.74
2022-11-07T18:13:51.134Z,8.66
2022-11-07T18:16:21.353Z,8.54
2022-11-07T18:18:48.427Z,8.56
2022-11-07T18:21:15.407Z,8.53
2022-11-07T18:23:43.015Z,8.55
2022-11-07T18:26:17.370Z,8.49
2022-11-07T18:28:44.494Z,8.47
2022-11-07T18:31:14.064Z,8.39
2022-11-07T18:33:41.672Z,8.33
2022-11-07T18:36:11.289Z,8.32
2022-11-07T18:38:38.531Z,8.24
2022-11-07T18:41:09.232Z,8.25
2022-11-07T18:43:36.882Z,8.22
2022-11-07T18:46:07.412Z,8.21
2022-11-07T18:48:34.783Z,8.14
2022-11-07T18:51:01.680Z,8.13
2022-11-07T18:53:29.784Z,8.21
2022-11-07T18:56:07.346Z,8.20
2022-11-07T18:58:36.486Z,8.12
2022-11-07T19:01:06.908Z,8.23
2022-11-07T19:03:35.042Z,8.25
2022-11-07T19:06:05.145Z,8.29
2022-11-07T19:08:33.932Z,8.29
2022-11-07T19:11:02.494Z,8.10
2022-11-07T19:13:29.471Z,7.98
2022-11-07T19:15:56.214Z,7.98
2022-11-07T19:18:22.843Z,8.00
2022-11-07T19:20:54.129Z,7.79
2022-11-07T19:23:20.873Z,7.69
2022-11-07T19:25:48.208Z,7.65
2022-11-07T19:28:15.603Z,7.51
2022-11-07T19:30:42.648Z,7.37
2022-11-07T19:33:09.788Z,7.33
2022-11-07T19:35:38.190Z,7.38
2022-11-07T19:38:09.025Z,7.35
2022-11-07T19:40:37.050Z,7.23
2022-11-07T19:43:04.815Z,7.15
2022-11-07T19:45:41.233Z,7.05
2022-11-07T19:48:08.355Z,7.03
2022-11-07T19:50:34.984Z,7.07
2022-11-07T19:53:01.623Z,7.18
2022-11-07T19:55:28.222Z,7.25
2022-11-07T19:57:54.902Z,7.18
2022-11-07T20:00:23.884Z,7.05
2022-11-07T20:02:50.745Z,6.88
2022-11-07T20:05:24.706Z,6.81
2022-11-07T20:07:55.297Z,6.80
2022-11-07T20:10:24.272Z,6.66
2022-11-07T20:12:51.219Z,6.71
2022-11-07T20:15:18.061Z,6.72
2022-11-07T20:17:44.701Z,6.74
2022-11-07T20:20:15.457Z,6.81
2022-11-07T20:22:46.535Z,6.82
2022-11-07T20:25:14.835Z,6.84
2022-11-07T20:27:41.916Z,6.84
2022-11-07T20:30:09.514Z,6.80
2022-11-07T20:32:36.170Z,6.75
2022-11-07T20:35:02.958Z,6.59
2022-11-07T20:37:29.581Z,6.53
2022-11-07T20:39:56.198Z,6.43
2022-11-07T20:42:23.022Z,6.38
2022-11-07T20:44:50.667Z,6.51
2022-11-07T20:47:17.416Z,6.53
2022-11-07T20:49:44.052Z,6.44
2022-11-07T20:52:10.819Z,6.38
2022-11-07T20:54:37.815Z,6.32
2022-11-07T20:57:05.251Z,6.31
2022-11-07T20:59:32.587Z,6.37
2022-11-07T21:02:03.412Z,6.43
2022-11-07T21:04:44.499Z,6.31
2022-11-07T21:07:19.993Z,6.17
2022-11-07T21:09:46.905Z,6.09
2022-11-07T21:12:13.667Z,5.99
2022-11-07T21:14:42.161Z,5.96
2022-11-07T21:17:09.703Z,5.99
2022-11-07T21:19:37.989Z,5.95
2022-11-07T21:22:06.243Z,5.87
2022-11-07T21:24:32.887Z,6.00
2022-11-07T21:26:59.512Z,5.91
2022-11-07T21:29:29.477Z,5.75
2022-11-07T21:31:57.368Z,5.77
2022-11-07T21:34:24.224Z,5.75
2022-11-07T21:36:50.854Z,5.80
2022-11-07T21:39:17.906Z,5.76
2022-11-07T21:41:44.837Z,5.68
2022-11-07T21:44:12.304Z,5.71
2022-11-07T21:46:41.222Z,5.67
2022-11-07T21:49:08.322Z,5.69
2022-11-07T21:51:35.665Z,5.70
2022-11-07T21:54:03.838Z,5.74
2022-11-07T21:56:33.605Z,5.56
2022-11-07T21:59:03.164Z,5.48
2022-11-07T22:01:34.849Z,5.41
2022-11-07T22:04:08.469Z,5.29
2022-11-07T22:06:37.895Z,5.30
2022-11-07T22:09:06.885Z,5.32
2022-11-07T22:11:33.568Z,5.40
2022-11-07T22:14:00.205Z,5.49
2022-11-07T22:16:27.341Z,5.48
2022-11-07T22:18:54.016Z,5.47
2022-11-07T22:21:23.223Z,5.34
2022-11-07T22:23:50.669Z,5.22
2022-11-07T22:26:19.544Z,5.08
2022-11-07T22:28:46.762Z,5.01
2022-11-07T22:31:16.968Z,5.07
2022-11-07T22:33:43.864Z,5.00
2022-11-07T22:36:12.040Z,4.91
2022-11-07T22:38:40.049Z,4.96
2022-11-07T22:41:09.267Z,4.96
2022-11-07T22:43:35.822Z,4.99
2022-11-07T22:46:05.765Z,4.95
2022-11-07T22:48:32.532Z,4.95
2022-11-07T22:51:15.872Z,4.86
2022-11-07T22:53:42.485Z,4.81
2022-11-07T22:56:13.617Z,4.76
2022-11-07T22:58:40.858Z,4.71
2022-11-07T23:01:17.982Z,4.66
2022-11-07T23:03:45.171Z,4.65
2022-11-07T23:06:11.857Z,4.54
2022-11-07T23:08:39.068Z,4.48
2022-11-07T23:14:02.007Z,4.43
2022-11-07T23:16:32.927Z,4.38
2022-11-07T23:19:02.165Z,4.53
2022-11-07T23:21:29.429Z,4.52
2022-11-07T23:23:57.703Z,4.58
2022-11-07T23:26:25.579Z,4.42
2022-11-07T23:28:52.283Z,4.50
2022-11-07T23:31:20.169Z,4.59
2022-11-07T23:33:46.912Z,4.69
2022-11-07T23:36:16.014Z,4.62
2022-11-07T23:38:44.164Z,4.53
2022-11-07T23:41:13.963Z,4.45
2022-11-07T23:43:40.877Z,4.32
2022-11-07T23:46:23.518Z,4.35
2022-11-07T23:49:09.411Z,4.49
2022-11-07T23:51:40.053Z,4.43
2022-11-07T23:54:22.530Z,4.28
2022-11-07T23:56:49.077Z,4.26
2022-11-07T23:59:31.010Z,4.14
